Time;durP1;ratioP1;P1;durP2;ratioP2;P2;SDS_P1;SDS_P2;PMS_P1;PMS_P2;Temp;Humidity;BMP_temperature;BMP_pressure;BME280_temperature;BME280_humidity;BME280_pressure;Samples;Min_cycle;Max_cycle;Signal;HPM_P1;HPM_P2
2023/06/09 00:00:46;;;;;;;29.10;10.02;;;11.00;99.90;;;;;;5090660;28;20581;-49
2023/06/09 00:03:11;;;;;;;28.35;10.57;;;10.90;99.90;;;;;;5090064;28;20074;-52
2023/06/09 00:05:39;;;;;;;24.80;10.05;;;12.20;99.90;;;;;;5090842;28;20504;-48
2023/06/09 00:08:06;;;;;;;33.17;12.10;;;11.00;99.90;;;;;;5089002;28;20044;-50
2023/06/09 00:10:32;;;;;;;22.60;11.05;;;10.90;99.90;;;;;;5088710;28;20657;-51
2023/06/09 00:12:58;;;;;;;28.55;11.35;;;10.90;99.90;;;;;;5089643;28;20039;-52
2023/06/09 00:15:24;;;;;;;31.48;11.55;;;10.90;99.90;;;;;;5072292;28;20028;-52
2023/06/09 00:17:50;;;;;;;32.65;11.48;;;9.80;99.90;;;;;;5090241;28;20104;-49
2023/06/09 00:20:16;;;;;;;28.60;11.95;;;11.00;99.90;;;;;;5090059;28;20389;-51
2023/06/09 00:22:44;;;;;;;32.70;11.30;;;11.00;99.90;;;;;;5092659;28;20279;-51
2023/06/09 00:25:12;;;;;;;28.98;11.38;;;11.00;99.90;;;;;;5091290;28;20970;-49
2023/06/09 00:27:42;;;;;;;21.60;10.55;;;10.70;99.90;;;;;;5091189;28;20039;-51
2023/06/09 00:30:08;;;;;;;26.00;11.30;;;10.90;99.90;;;;;;5092254;28;20043;-51
2023/06/09 00:32:35;;;;;;;26.27;10.35;;;11.10;99.90;;;;;;5090769;28;20053;-48
2023/06/09 00:35:01;;;;;;;24.65;8.43;;;10.90;99.90;;;;;;5090551;28;20047;-49
2023/06/09 00:37:27;;;;;;;30.60;10.95;;;10.80;99.90;;;;;;5090655;28;20043;-50
2023/06/09 00:39:53;;;;;;;27.67;10.50;;;11.10;99.90;;;;;;5093061;28;20039;-52
2023/06/09 00:42:18;;;;;;;30.95;10.75;;;10.80;99.90;;;;;;5090882;28;20384;-55
2023/06/09 00:44:44;;;;;;;25.73;11.30;;;10.90;99.90;;;;;;5090599;28;20044;-52
2023/06/09 00:47:10;;;;;;;24.88;10.15;;;11.10;99.90;;;;;;5089753;28;20161;-49
2023/06/09 00:49:36;;;;;;;24.45;11.18;;;11.00;99.90;;;;;;5089613;28;20062;-48
2023/06/09 00:52:03;;;;;;;34.45;10.85;;;10.90;99.90;;;;;;5089453;28;20051;-51
2023/06/09 00:54:29;;;;;;;27.05;9.15;;;10.90;99.90;;;;;;5071778;28;20059;-49
2023/06/09 00:56:56;;;;;;;25.05;9.80;;;11.00;99.90;;;;;;5088585;28;20071;-52
2023/06/09 00:59:22;;;;;;;23.42;9.40;;;11.00;99.90;;;;;;5090679;28;20434;-51
2023/06/09 01:01:48;;;;;;;31.17;10.35;;;11.00;99.90;;;;;;5055083;28;20050;-50
2023/06/09 01:04:14;;;;;;;30.63;10.95;;;10.90;99.90;;;;;;5090023;28;20093;-48
2023/06/09 01:07:00;;;;;;;21.50;10.30;;;10.90;99.90;;;;;;5089059;28;20039;-51
2023/06/09 01:09:34;;;;;;;26.42;10.63;;;11.10;99.90;;;;;;5091250;28;20786;-50
2023/06/09 01:12:15;;;;;;;32.15;9.95;;;10.80;99.90;;;;;;5093971;28;20051;-53
2023/06/09 01:14:53;;;;;;;28.85;11.18;;;11.10;99.90;;;;;;5092927;28;20047;-49
2023/06/09 01:17:22;;;;;;;26.58;10.32;;;10.90;99.90;;;;;;5075413;28;20043;-51
2023/06/09 01:19:51;;;;;;;27.15;9.27;;;10.90;99.90;;;;;;5093812;28;20415;-51
2023/06/09 01:22:38;;;;;;;22.77;9.85;;;11.10;99.90;;;;;;5094531;28;20071;-50
2023/06/09 01:25:35;;;;;;;27.02;10.98;;;10.90;99.90;;;;;;5092964;28;20132;-51
2023/06/09 01:28:10;;;;;;;25.15;10.38;;;10.80;99.90;;;;;;5092161;28;20035;-52
2023/06/09 01:30:37;;;;;;;25.88;10.95;;;10.90;99.90;;;;;;5092979;28;20500;-50
2023/06/09 01:33:08;;;;;;;25.23;10.23;;;11.10;99.90;;;;;;5092924;28;20040;-50
2023/06/09 01:35:35;;;;;;;26.73;9.95;;;11.00;99.90;;;;;;5092282;28;20127;-49
2023/06/09 01:38:02;;;;;;;27.17;9.75;;;11.00;99.90;;;;;;5093655;28;20499;-52
2023/06/09 01:40:29;;;;;;;23.70;10.20;;;10.90;99.90;;;;;;5092884;28;20066;-52
2023/06/09 01:43:00;;;;;;;26.75;10.57;;;11.00;99.90;;;;;;5091810;28;20043;-52
2023/06/09 01:45:26;;;;;;;25.45;9.85;;;11.00;99.90;;;;;;5092782;28;20412;-52
2023/06/09 01:47:53;;;;;;;23.88;10.35;;;11.00;99.90;;;;;;5073328;28;20040;-49
2023/06/09 01:50:46;;;;;;;33.75;9.85;;;11.00;99.90;;;;;;5091375;28;20052;-49
2023/06/09 01:53:18;;;;;;;22.30;9.93;;;10.90;99.90;;;;;;5092498;28;20467;-50
2023/06/09 01:55:55;;;;;;;25.13;8.93;;;11.00;99.90;;;;;;5093031;28;20067;-50
2023/06/09 01:58:36;;;;;;;24.17;10.30;;;11.70;99.90;;;;;;5092454;28;20036;-54
2023/06/09 02:01:02;;;;;;;25.67;10.52;;;10.90;99.90;;;;;;5093270;28;20074;-52
2023/06/09 02:03:30;;;;;;;30.67;10.75;;;10.90;99.90;;;;;;5094923;28;20171;-53
2023/06/09 02:05:57;;;;;;;26.75;9.95;;;11.10;99.90;;;;;;5093915;28;20051;-45
2023/06/09 02:08:23;;;;;;;19.75;9.15;;;10.90;99.90;;;;;;5094017;28;20092;-53
2023/06/09 02:10:49;;;;;;;22.92;9.63;;;10.90;99.90;;;;;;5092626;28;20043;-53
2023/06/09 02:13:16;;;;;;;22.23;9.40;;;11.00;99.90;;;;;;5074061;28;20413;-53
2023/06/09 02:15:44;;;;;;;25.38;10.85;;;10.90;99.90;;;;;;5076360;28;20047;-52
2023/06/09 02:18:13;;;;;;;25.30;9.07;;;11.00;99.90;;;;;;5092281;28;20138;-52
2023/06/09 02:20:40;;;;;;;23.08;9.60;;;10.90;99.90;;;;;;5091240;28;21010;-53
2023/06/09 02:23:06;;;;;;;24.17;8.93;;;10.90;99.90;;;;;;5093671;28;20154;-54
2023/06/09 02:25:33;;;;;;;27.13;10.02;;;10.90;99.90;;;;;;5092740;28;20051;-53
2023/06/09 02:28:06;;;;;;;30.67;11.45;;;10.90;99.90;;;;;;5093160;28;20039;-54
2023/06/09 02:30:33;;;;;;;25.92;10.73;;;11.00;99.90;;;;;;5093085;28;20051;-54
2023/06/09 02:33:00;;;;;;;30.15;10.70;;;10.80;99.90;;;;;;5092224;28;20504;-53
2023/06/09 02:35:26;;;;;;;26.30;10.65;;;11.00;99.90;;;;;;5091693;28;20043;-51
2023/06/09 02:37:54;;;;;;;25.55;9.52;;;10.80;99.90;;;;;;5091656;28;20100;-53
2023/06/09 02:40:21;;;;;;;21.80;9.93;;;10.80;99.90;;;;;;5090246;28;20058;-53
2023/06/09 02:42:47;;;;;;;25.85;10.00;;;10.70;99.90;;;;;;5091496;28;20049;-54
2023/06/09 02:45:13;;;;;;;28.45;11.25;;;10.80;99.90;;;;;;5089763;28;20044;-52
2023/06/09 02:47:39;;;;;;;32.92;12.38;;;10.70;99.90;;;;;;5091813;28;20039;-50
2023/06/09 02:50:05;;;;;;;27.50;11.05;;;11.00;99.90;;;;;;5070303;28;20058;-50
2023/06/09 02:52:32;;;;;;;28.50;11.68;;;10.80;99.90;;;;;;5092076;28;20055;-53
2023/06/09 02:54:58;;;;;;;27.98;11.32;;;11.00;99.90;;;;;;5091392;28;20419;-51
2023/06/09 02:57:26;;;;;;;22.70;10.70;;;10.90;99.90;;;;;;5092480;28;20040;-52
2023/06/09 02:59:51;;;;;;;31.63;12.15;;;10.90;99.90;;;;;;5090417;28;20051;-51
2023/06/09 03:02:18;;;;;;;27.58;11.57;;;10.80;99.90;;;;;;5090935;28;20054;-51
2023/06/09 03:04:43;;;;;;;25.58;11.45;;;10.90;99.90;;;;;;5091595;28;20071;-51
2023/06/09 03:07:13;;;;;;;30.15;11.15;;;10.80;99.90;;;;;;5091590;28;20134;-52
2023/06/09 03:09:39;;;;;;;27.45;11.27;;;10.90;99.90;;;;;;5089183;28;20424;-51
2023/06/09 03:12:06;;;;;;;30.00;12.05;;;10.90;99.90;;;;;;5090964;28;20425;-53
2023/06/09 03:14:33;;;;;;;30.58;11.73;;;10.80;99.90;;;;;;5091985;28;20092;-50
2023/06/09 03:17:00;;;;;;;28.27;11.52;;;11.00;99.90;;;;;;5091296;28;20059;-53
2023/06/09 03:19:26;;;;;;;20.92;10.43;;;11.10;99.90;;;;;;5071131;28;20056;-51
2023/06/09 03:21:53;;;;;;;31.63;13.07;;;11.00;99.90;;;;;;5090293;28;20047;-52
2023/06/09 03:24:19;;;;;;;28.55;11.27;;;9.20;99.90;;;;;;5090231;28;20047;-53
2023/06/09 03:26:46;;;;;;;32.20;12.27;;;11.10;99.90;;;;;;5091566;28;20531;-52
2023/06/09 03:29:12;;;;;;;21.75;10.93;;;11.00;99.90;;;;;;5091602;28;20047;-52
2023/06/09 03:31:37;;;;;;;25.63;11.02;;;11.10;99.90;;;;;;5088379;28;20038;-53
2023/06/09 03:34:03;;;;;;;30.80;12.95;;;10.90;99.90;;;;;;5089430;28;21380;-53
2023/06/09 03:36:29;;;;;;;26.60;12.88;;;11.00;99.90;;;;;;5091518;28;20043;-53
2023/06/09 03:38:55;;;;;;;29.23;12.02;;;11.10;99.90;;;;;;5090425;28;20048;-53
2023/06/09 03:41:21;;;;;;;23.30;11.20;;;11.10;99.90;;;;;;5071948;28;20064;-52
2023/06/09 03:43:47;;;;;;;29.80;13.05;;;11.20;99.90;;;;;;5073556;28;20046;-52
2023/06/09 03:46:13;;;;;;;30.48;12.90;;;11.50;99.90;;;;;;5090552;28;20047;-52
2023/06/09 03:48:42;;;;;;;32.55;12.25;;;11.30;99.90;;;;;;5091043;28;20032;-52
2023/06/09 03:51:08;;;;;;;30.10;12.45;;;11.10;99.90;;;;;;5089487;28;20741;-53
2023/06/09 03:53:34;;;;;;;32.60;13.73;;;11.30;99.90;;;;;;5092659;28;20127;-53
2023/06/09 03:56:00;;;;;;;30.45;13.30;;;11.40;99.90;;;;;;5090041;28;20365;-53
2023/06/09 03:58:26;;;;;;;30.38;12.90;;;11.10;99.90;;;;;;5072503;28;20043;-52
2023/06/09 04:00:52;;;;;;;32.47;12.35;;;11.40;99.90;;;;;;5090390;28;20071;-52
2023/06/09 04:03:20;;;;;;;34.25;13.45;;;11.30;99.90;;;;;;5073978;28;20437;-53
2023/06/09 04:05:47;;;;;;;26.77;13.20;;;11.40;99.90;;;;;;5088173;28;20043;-52
2023/06/09 04:08:13;;;;;;;30.42;13.80;;;11.40;99.90;;;;;;5089785;28;20077;-54
2023/06/09 04:10:40;;;;;;;27.80;12.45;;;11.40;99.90;;;;;;5090910;28;20051;-52
2023/06/09 04:13:06;;;;;;;33.80;13.07;;;10.60;99.90;;;;;;5090768;28;20450;-53
2023/06/09 04:15:32;;;;;;;25.20;13.02;;;11.50;99.90;;;;;;5089945;28;20083;-53
2023/06/09 04:17:58;;;;;;;30.70;14.30;;;11.60;99.90;;;;;;5067312;28;20134;-53
2023/06/09 04:20:24;;;;;;;27.00;12.15;;;11.50;99.90;;;;;;5088822;28;20058;-53
2023/06/09 04:22:51;;;;;;;39.53;13.45;;;11.70;99.90;;;;;;5090673;28;20043;-53
2023/06/09 04:25:19;;;;;;;23.63;12.45;;;11.70;99.90;;;;;;5089470;28;20055;-53
2023/06/09 04:27:45;;;;;;;28.83;13.88;;;11.80;99.90;;;;;;5090575;28;20156;-53
2023/06/09 04:30:11;;;;;;;29.77;13.25;;;11.60;99.90;;;;;;5089380;28;20763;-54
2023/06/09 04:32:37;;;;;;;27.92;11.73;;;11.80;99.90;;;;;;5089447;28;20126;-51
2023/06/09 04:35:03;;;;;;;23.27;11.95;;;11.70;99.90;;;;;;5071884;28;20054;-55
2023/06/09 04:37:30;;;;;;;31.70;12.95;;;11.80;99.90;;;;;;5088998;28;20372;-53
2023/06/09 04:39:57;;;;;;;30.20;12.18;;;11.90;99.90;;;;;;5088824;28;20055;-49
2023/06/09 04:42:24;;;;;;;25.63;12.60;;;12.00;99.90;;;;;;5088875;28;20035;-53
2023/06/09 04:44:50;;;;;;;29.20;11.82;;;12.20;99.90;;;;;;5091512;28;20034;-52
2023/06/09 04:47:20;;;;;;;24.30;11.65;;;12.10;99.90;;;;;;5093747;28;20097;-54
2023/06/09 04:49:46;;;;;;;26.73;11.57;;;12.10;99.90;;;;;;5092618;28;20138;-54
2023/06/09 04:52:19;;;;;;;22.02;10.32;;;12.20;99.90;;;;;;5091078;28;20454;-52
2023/06/09 04:54:45;;;;;;;26.98;11.25;;;12.30;99.90;;;;;;5094240;28;20055;-54
2023/06/09 04:57:11;;;;;;;25.67;10.50;;;12.40;99.90;;;;;;5094316;28;20092;-53
2023/06/09 04:59:40;;;;;;;26.38;9.70;;;12.40;99.90;;;;;;5093234;28;20455;-51
2023/06/09 05:02:08;;;;;;;30.00;11.88;;;12.40;99.90;;;;;;5093969;28;20408;-52
2023/06/09 05:04:34;;;;;;;23.92;10.43;;;12.70;99.90;;;;;;5093572;28;20842;-54
2023/06/09 05:07:01;;;;;;;25.23;9.73;;;12.80;99.90;;;;;;5093638;28;20032;-54
2023/06/09 05:09:27;;;;;;;23.92;10.00;;;12.60;99.90;;;;;;5092932;28;20055;-53
2023/06/09 05:11:53;;;;;;;17.42;8.20;;;12.80;99.90;;;;;;5093831;28;20528;-51
2023/06/09 05:14:19;;;;;;;21.88;9.05;;;12.90;99.90;;;;;;5093614;28;20039;-52
2023/06/09 05:16:45;;;;;;;23.92;9.23;;;13.00;99.90;;;;;;5093516;28;20866;-54
2023/06/09 05:19:11;;;;;;;22.38;9.52;;;13.00;99.90;;;;;;5092514;28;20040;-54
2023/06/09 05:21:38;;;;;;;26.48;9.20;;;13.00;99.90;;;;;;5092509;28;20039;-55
2023/06/09 05:24:05;;;;;;;15.93;7.70;;;13.10;99.90;;;;;;5095080;28;20364;-53
2023/06/09 05:26:31;;;;;;;25.20;8.35;;;13.30;99.90;;;;;;5093136;28;20472;-53
2023/06/09 05:28:58;;;;;;;17.05;7.55;;;13.30;99.90;;;;;;5093644;28;20618;-54
2023/06/09 05:31:24;;;;;;;20.20;7.60;;;13.40;99.90;;;;;;5091249;28;20416;-53
2023/06/09 05:33:50;;;;;;;23.17;8.38;;;13.50;99.90;;;;;;5092204;28;20131;-53
2023/06/09 05:36:16;;;;;;;22.95;8.00;;;13.50;99.90;;;;;;5092901;28;20456;-51
2023/06/09 05:38:42;;;;;;;24.73;8.73;;;13.60;99.90;;;;;;5091194;28;20173;-52
2023/06/09 05:41:08;;;;;;;24.52;7.80;;;13.50;99.90;;;;;;5070930;28;20090;-53
2023/06/09 05:43:33;;;;;;;23.00;7.25;;;13.70;99.90;;;;;;5093266;28;20053;-50
2023/06/09 05:45:59;;;;;;;17.48;7.40;;;13.60;99.90;;;;;;5092681;28;20052;-53
2023/06/09 05:48:25;;;;;;;17.35;7.63;;;13.70;99.90;;;;;;5092049;28;20554;-54
2023/06/09 05:50:51;;;;;;;27.83;7.63;;;13.80;99.90;;;;;;5091257;28;20039;-53
2023/06/09 05:53:17;;;;;;;24.90;8.15;;;14.00;99.90;;;;;;5073782;28;20051;-51
2023/06/09 05:55:47;;;;;;;18.45;6.93;;;14.20;99.90;;;;;;5092012;28;20117;-56
2023/06/09 05:58:14;;;;;;;17.98;7.47;;;14.10;99.90;;;;;;5091617;28;20127;-54
2023/06/09 06:00:40;;;;;;;18.35;7.32;;;14.30;99.90;;;;;;5092267;28;20098;-55
2023/06/09 06:03:08;;;;;;;17.73;7.32;;;14.10;99.90;;;;;;5091321;28;20481;-56
2023/06/09 06:05:34;;;;;;;18.13;7.97;;;14.30;99.90;;;;;;5091876;28;20043;-55
2023/06/09 06:08:00;;;;;;;17.75;7.38;;;14.30;99.90;;;;;;5092170;28;20101;-56
2023/06/09 06:10:26;;;;;;;20.25;7.60;;;14.40;99.90;;;;;;5091435;28;20090;-56
2023/06/09 06:12:52;;;;;;;19.60;7.93;;;14.50;99.90;;;;;;5091206;28;20575;-56
2023/06/09 06:15:19;;;;;;;20.63;8.00;;;14.60;99.90;;;;;;5091517;28;20500;-56
2023/06/09 06:17:44;;;;;;;16.00;6.68;;;15.00;99.90;;;;;;5074903;28;20036;-56
2023/06/09 06:20:12;;;;;;;21.08;7.30;;;15.30;99.90;;;;;;5091101;28;20620;-56
2023/06/09 06:22:39;;;;;;;17.58;6.75;;;14.00;99.90;;;;;;5091379;28;20051;-56
2023/06/09 06:25:05;;;;;;;21.38;7.40;;;15.50;99.90;;;;;;5092854;28;20043;-56
2023/06/09 06:27:30;;;;;;;15.48;6.25;;;15.40;99.90;;;;;;5092351;28;20718;-56
2023/06/09 06:29:56;;;;;;;17.10;6.80;;;15.60;99.90;;;;;;5090933;28;20051;-56
2023/06/09 06:32:22;;;;;;;19.33;6.47;;;15.90;99.90;;;;;;5090329;28;20047;-56
2023/06/09 06:34:48;;;;;;;18.88;7.32;;;16.00;99.90;;;;;;5091513;28;21021;-56
2023/06/09 06:37:14;;;;;;;18.80;6.60;;;14.90;99.90;;;;;;5090127;28;20119;-57
2023/06/09 06:39:40;;;;;;;17.67;6.57;;;16.10;99.90;;;;;;5071874;28;20035;-56
2023/06/09 06:42:06;;;;;;;22.70;6.78;;;16.30;99.90;;;;;;5090654;28;20456;-54
2023/06/09 06:44:32;;;;;;;19.20;6.50;;;16.30;99.90;;;;;;5092399;28;20314;-57
2023/06/09 06:46:58;;;;;;;15.30;6.53;;;16.40;99.90;;;;;;5072858;28;20043;-56
2023/06/09 06:49:23;;;;;;;17.92;6.68;;;16.50;99.90;;;;;;5090738;28;20511;-56
2023/06/09 06:51:49;;;;;;;20.58;6.75;;;16.90;99.90;;;;;;5091492;28;20039;-57
2023/06/09 06:54:16;;;;;;;17.95;6.88;;;17.00;99.90;;;;;;5092784;28;20047;-56
2023/06/09 06:56:42;;;;;;;18.52;6.95;;;17.30;99.90;;;;;;5092937;28;20058;-56
2023/06/09 06:59:09;;;;;;;17.92;6.32;;;17.20;99.90;;;;;;5091571;28;20127;-56
2023/06/09 07:01:36;;;;;;;16.80;6.75;;;17.10;99.90;;;;;;5090387;28;20130;-57
2023/06/09 07:04:02;;;;;;;18.30;6.55;;;17.10;99.90;;;;;;5090930;28;20105;-56
2023/06/09 07:06:28;;;;;;;16.70;6.65;;;17.10;99.90;;;;;;5091504;28;20039;-56
2023/06/09 07:08:54;;;;;;;18.50;7.25;;;17.10;99.90;;;;;;5090481;28;20140;-56
2023/06/09 07:11:21;;;;;;;16.63;6.10;;;17.30;99.90;;;;;;5090111;28;20036;-57
2023/06/09 07:13:47;;;;;;;18.15;6.35;;;17.50;99.90;;;;;;5091948;28;20035;-56
2023/06/09 07:16:13;;;;;;;15.40;6.22;;;18.00;99.90;;;;;;5090779;28;20046;-57
2023/06/09 07:18:39;;;;;;;18.58;6.60;;;18.60;99.90;;;;;;5093462;28;20587;-56
2023/06/09 07:21:04;;;;;;;17.02;5.82;;;19.00;99.90;;;;;;5090276;28;20396;-56
2023/06/09 07:23:30;;;;;;;16.05;6.10;;;19.70;99.90;;;;;;5092421;28;20209;-57
2023/06/09 07:25:56;;;;;;;17.92;6.07;;;20.40;99.90;;;;;;5091554;28;20047;-57
2023/06/09 07:28:21;;;;;;;17.85;7.13;;;20.80;99.90;;;;;;5068536;28;20131;-56
2023/06/09 07:30:47;;;;;;;18.50;7.03;;;21.20;99.90;;;;;;5068599;28;20040;-57
2023/06/09 07:33:13;;;;;;;21.13;6.95;;;21.60;99.90;;;;;;5090463;28;20876;-57
2023/06/09 07:35:40;;;;;;;16.40;5.63;;;21.70;99.90;;;;;;5090900;28;20039;-57
2023/06/09 07:38:08;;;;;;;20.10;6.20;;;22.20;99.90;;;;;;5091312;28;20105;-57
2023/06/09 07:40:33;;;;;;;19.80;7.13;;;22.70;99.90;;;;;;5090140;28;20105;-57
2023/06/09 07:42:59;;;;;;;17.52;5.70;;;22.90;99.90;;;;;;5091124;28;20511;-57
2023/06/09 07:45:25;;;;;;;13.93;5.63;;;23.00;99.90;;;;;;5092434;28;20100;-57
2023/06/09 07:47:51;;;;;;;16.23;5.60;;;23.40;99.90;;;;;;5091524;28;20039;-57
2023/06/09 07:50:17;;;;;;;16.05;5.50;;;23.50;99.90;;;;;;5088764;28;20495;-57
2023/06/09 07:52:43;;;;;;;18.50;6.15;;;23.60;99.90;;;;;;5091244;28;20516;-57
2023/06/09 07:55:09;;;;;;;16.95;5.80;;;24.20;99.90;;;;;;5092487;28;20036;-58
2023/06/09 07:57:35;;;;;;;14.13;5.35;;;24.40;99.90;;;;;;5092920;28;20051;-58
2023/06/09 08:00:01;;;;;;;13.43;5.30;;;24.70;99.90;;;;;;5095353;28;20034;-58
2023/06/09 08:02:28;;;;;;;14.45;5.03;;;24.80;99.90;;;;;;5100234;28;20039;-57
2023/06/09 08:04:54;;;;;;;14.90;5.22;;;25.10;99.90;;;;;;5099408;28;20471;-58
2023/06/09 08:07:19;;;;;;;17.70;5.00;;;25.00;99.90;;;;;;5099843;28;20050;-58
2023/06/09 08:09:45;;;;;;;12.13;5.40;;;25.30;99.90;;;;;;5098774;28;20057;-57
2023/06/09 08:12:11;;;;;;;17.30;5.18;;;25.20;99.90;;;;;;5098674;28;20127;-58
2023/06/09 08:14:37;;;;;;;13.05;4.82;;;25.00;99.90;;;;;;5099206;28;20127;-57
2023/06/09 08:17:03;;;;;;;12.68;5.40;;;25.30;99.90;;;;;;5099359;28;20139;-58
2023/06/09 08:19:28;;;;;;;12.90;5.40;;;25.30;99.90;;;;;;5098588;28;20119;-58
2023/06/09 08:21:55;;;;;;;11.43;4.63;;;25.90;99.90;;;;;;5103068;28;20059;-57
2023/06/09 08:24:20;;;;;;;12.18;4.95;;;25.50;99.90;;;;;;5101865;28;20051;-57
2023/06/09 08:26:48;;;;;;;12.38;4.25;;;25.80;99.90;;;;;;5095738;28;20036;-55
2023/06/09 08:29:15;;;;;;;14.80;4.80;;;25.60;99.90;;;;;;5093749;28;20097;-54
2023/06/09 08:31:41;;;;;;;14.05;4.60;;;25.90;99.90;;;;;;5074429;28;20044;-56
2023/06/09 08:34:07;;;;;;;12.02;3.80;;;26.10;99.90;;;;;;5094475;28;20047;-55
2023/06/09 08:36:33;;;;;;;13.15;4.68;;;25.90;99.90;;;;;;5092771;28;20043;-56
2023/06/09 08:38:59;;;;;;;11.25;4.53;;;25.70;99.90;;;;;;5093297;28;20451;-56
2023/06/09 08:41:32;;;;;;;10.15;4.18;;;26.10;99.90;;;;;;5095047;28;20031;-56
2023/06/09 08:43:58;;;;;;;12.75;4.40;;;25.90;99.90;;;;;;5092172;28;20039;-56
2023/06/09 08:46:28;;;;;;;13.80;4.70;;;25.60;99.90;;;;;;5092696;28;20200;-56
2023/06/09 08:48:56;;;;;;;13.07;4.80;;;25.50;99.90;;;;;;5093848;28;20051;-56
2023/06/09 08:51:22;;;;;;;10.88;4.75;;;25.70;99.90;;;;;;5069299;28;20332;-56
2023/06/09 08:53:52;;;;;;;15.93;5.03;;;25.60;99.90;;;;;;5091194;28;20599;-56
2023/06/09 08:56:19;;;;;;;11.60;4.28;;;25.40;99.90;;;;;;5094161;28;20114;-56
2023/06/09 08:58:46;;;;;;;12.52;4.15;;;25.50;99.90;;;;;;5093995;28;20138;-55
2023/06/09 09:01:13;;;;;;;11.68;4.00;;;25.70;99.90;;;;;;5092729;28;20097;-56
2023/06/09 09:03:39;;;;;;;14.18;4.65;;;25.80;99.90;;;;;;5094075;28;20039;-55
2023/06/09 09:06:05;;;;;;;12.30;4.35;;;25.70;99.90;;;;;;5093402;28;20066;-56
2023/06/09 09:08:30;;;;;;;11.75;4.68;;;25.40;99.90;;;;;;5093909;28;20123;-56
2023/06/09 09:10:56;;;;;;;10.75;4.57;;;25.40;99.90;;;;;;5093284;28;20045;-55
2023/06/09 09:13:29;;;;;;;11.32;4.07;;;25.30;99.90;;;;;;5093580;28;20173;-54
2023/06/09 09:15:55;;;;;;;11.20;4.47;;;25.30;99.90;;;;;;5094053;28;20040;-54
2023/06/09 09:18:20;;;;;;;10.30;4.28;;;25.10;99.90;;;;;;5094615;28;20035;-54
2023/06/09 09:20:47;;;;;;;12.68;4.70;;;24.70;99.90;;;;;;5074956;28;20039;-54
2023/06/09 09:23:14;;;;;;;11.65;4.35;;;24.40;99.90;;;;;;5094354;28;20147;-53
2023/06/09 09:25:41;;;;;;;10.80;4.18;;;24.30;99.90;;;;;;5078287;28;20055;-54
2023/06/09 09:28:08;;;;;;;9.68;4.13;;;24.10;99.90;;;;;;5093940;28;21160;-54
2023/06/09 09:30:41;;;;;;;12.95;4.90;;;24.00;99.90;;;;;;5092379;28;20055;-55
2023/06/09 09:33:12;;;;;;;12.82;4.03;;;23.90;99.90;;;;;;5093457;28;20055;-54
2023/06/09 09:35:39;;;;;;;11.95;4.68;;;23.80;99.90;;;;;;5073536;28;20073;-55
2023/06/09 09:38:11;;;;;;;10.38;4.25;;;24.10;99.90;;;;;;5093541;28;20047;-53
2023/06/09 09:40:42;;;;;;;12.90;4.53;;;24.00;99.90;;;;;;5092641;28;20048;-53
2023/06/09 09:43:10;;;;;;;;;;;23.80;99.90;;;;;;5092435;28;20054;-53
2023/06/09 09:45:38;;;;;;;11.95;4.22;;;24.00;99.90;;;;;;5092020;28;19926;-54
2023/06/09 09:48:11;;;;;;;11.57;4.65;;;23.90;99.90;;;;;;5092344;28;20519;-54
2023/06/09 09:50:38;;;;;;;11.80;4.47;;;24.00;99.90;;;;;;5091688;28;20067;-55
2023/06/09 09:53:05;;;;;;;13.52;4.32;;;24.00;99.90;;;;;;5092974;28;20052;-54
2023/06/09 09:55:41;;;;;;;10.30;4.70;;;24.00;99.90;;;;;;5093714;28;20553;-53
2023/06/09 09:58:08;;;;;;;13.25;4.80;;;24.30;99.90;;;;;;5075128;28;20126;-52
2023/06/09 10:00:36;;;;;;;10.90;5.30;;;24.30;99.90;;;;;;5091061;28;20043;-55
2023/06/09 10:03:10;;;;;;;13.40;4.70;;;24.20;99.90;;;;;;5091369;28;20050;-55
2023/06/09 10:05:42;;;;;;;12.65;5.15;;;24.40;99.90;;;;;;5090378;28;20040;-55
2023/06/09 10:08:09;;;;;;;16.13;4.10;;;24.60;99.90;;;;;;5091590;28;20116;-54
2023/06/09 10:10:36;;;;;;;10.70;3.95;;;24.90;99.90;;;;;;5091715;28;20164;-54
2023/06/09 10:13:03;;;;;;;11.77;4.43;;;24.90;99.90;;;;;;5091335;28;21171;-54
2023/06/09 10:15:30;;;;;;;13.98;4.75;;;25.10;99.90;;;;;;5092752;28;20369;-54
2023/06/09 10:17:58;;;;;;;12.45;4.53;;;25.20;99.90;;;;;;5091219;28;20053;-54
2023/06/09 10:20:23;;;;;;;10.60;4.18;;;25.20;99.90;;;;;;5073961;28;20051;-50
2023/06/09 10:22:52;;;;;;;10.52;3.97;;;25.30;99.90;;;;;;5057479;28;20444;-55
2023/06/09 10:25:18;;;;;;;11.27;4.50;;;25.10;99.90;;;;;;5092764;28;20085;-54
2023/06/09 10:27:45;;;;;;;10.40;4.45;;;25.10;99.90;;;;;;5094597;28;20127;-54
2023/06/09 10:30:15;;;;;;;17.42;5.47;;;25.30;99.90;;;;;;5091993;28;20176;-52
2023/06/09 10:32:47;;;;;;;12.32;4.20;;;25.20;99.90;;;;;;5092320;28;20408;-54
2023/06/09 10:35:17;;;;;;;12.63;4.45;;;25.20;99.90;;;;;;5091880;28;20044;-54
2023/06/09 10:37:45;;;;;;;11.02;4.63;;;25.70;99.90;;;;;;5091020;28;20053;-54
2023/06/09 10:40:25;;;;;;;12.27;4.40;;;25.50;99.90;;;;;;5091997;28;20040;-53
2023/06/09 10:43:03;;;;;;;11.88;4.30;;;25.50;99.90;;;;;;5092350;28;20122;-54
2023/06/09 10:45:50;;;;;;;9.32;3.97;;;26.00;99.90;;;;;;5090544;28;20597;-52
2023/06/09 10:48:45;;;;;;;9.18;4.05;;;26.10;99.90;;;;;;5074223;28;20126;-53
2023/06/09 10:51:26;;;;;;;13.65;4.32;;;26.20;99.90;;;;;;5089323;28;20122;-54
2023/06/09 10:54:12;;;;;;;13.98;4.18;;;26.40;99.90;;;;;;5092885;28;20051;-53
2023/06/09 10:56:43;;;;;;;7.90;3.83;;;26.10;99.90;;;;;;5075638;28;20956;-54
2023/06/09 10:59:24;;;;;;;;;;;26.20;99.90;;;;;;5093469;28;20043;-55
2023/06/09 11:02:05;;;;;;;12.25;4.07;;;26.10;99.90;;;;;;5091173;28;19923;-54
2023/06/09 11:04:46;;;;;;;10.18;4.28;;;25.90;99.90;;;;;;5091265;28;20039;-55
2023/06/09 11:07:15;;;;;;;11.02;4.65;;;26.20;99.90;;;;;;5091423;28;20776;-53
2023/06/09 11:09:48;;;;;;;10.82;4.22;;;26.30;99.90;;;;;;5092582;28;20867;-54
2023/06/09 11:12:42;;;;;;;13.60;4.95;;;26.50;99.90;;;;;;5091679;28;20456;-53
2023/06/09 11:15:10;;;;;;;9.18;3.95;;;26.40;99.90;;;;;;5090964;28;20051;-53
2023/06/09 11:17:37;;;;;;;10.07;3.88;;;26.30;99.90;;;;;;5090534;28;20120;-55
2023/06/09 11:20:11;;;;;;;9.32;3.97;;;26.30;99.90;;;;;;5089220;28;20051;-54
2023/06/09 11:23:01;;;;;;;15.77;4.07;;;26.40;99.90;;;;;;5090101;28;20038;-53
2023/06/09 11:25:27;;;;;;;8.13;4.53;;;26.70;99.90;;;;;;5090611;28;20047;-49
2023/06/09 11:27:59;;;;;;;9.25;4.40;;;26.70;99.90;;;;;;5090389;28;20070;-53
2023/06/09 11:30:29;;;;;;;13.05;4.28;;;26.70;99.90;;;;;;5090281;28;20048;-50
2023/06/09 11:32:56;;;;;;;10.23;4.85;;;27.00;99.90;;;;;;5090856;28;20051;-52
2023/06/09 11:35:30;;;;;;;8.00;4.15;;;26.70;99.90;;;;;;5088862;28;20048;-52
2023/06/09 11:37:57;;;;;;;9.45;4.70;;;26.60;99.90;;;;;;5088743;28;20057;-52
2023/06/09 11:40:28;;;;;;;12.73;4.90;;;26.90;99.90;;;;;;5088356;28;20032;-51
2023/06/09 11:42:58;;;;;;;13.15;5.20;;;26.50;99.90;;;;;;5088469;28;20044;-53
2023/06/09 11:45:25;;;;;;;13.20;4.85;;;26.80;99.90;;;;;;5089562;28;20563;-50
2023/06/09 11:47:59;;;;;;;10.32;4.32;;;26.60;99.90;;;;;;5089308;28;20968;-50
2023/06/09 11:50:46;;;;;;;12.38;4.65;;;26.70;99.90;;;;;;5088924;28;20075;-48
2023/06/09 11:53:16;;;;;;;12.95;5.00;;;26.80;99.90;;;;;;5088100;28;20160;-50
2023/06/09 11:55:43;;;;;;;12.35;4.55;;;26.80;99.90;;;;;;5090380;28;20388;-53
2023/06/09 11:58:10;;;;;;;10.00;4.72;;;27.00;99.90;;;;;;5091001;28;20085;-49
2023/06/09 12:00:43;;;;;;;8.30;4.07;;;26.90;99.90;;;;;;5089889;28;20562;-48
2023/06/09 12:03:10;;;;;;;8.90;4.25;;;27.00;99.90;;;;;;5089960;28;20048;-48
2023/06/09 12:05:37;;;;;;;13.70;4.22;;;26.80;99.90;;;;;;5088685;28;20057;-48
2023/06/09 12:08:02;;;;;;;10.07;4.03;;;26.90;99.90;;;;;;5078385;28;20101;-48
2023/06/09 12:10:29;;;;;;;9.75;4.10;;;26.90;99.90;;;;;;5097252;28;20154;-48
2023/06/09 12:12:58;;;;;;;11.68;4.53;;;27.00;99.90;;;;;;5098654;28;20054;-52
2023/06/09 12:15:26;;;;;;;8.10;3.70;;;27.00;99.90;;;;;;5099370;28;20090;-51
2023/06/09 12:17:53;;;;;;;7.78;3.80;;;27.00;99.90;;;;;;5098884;28;20047;-49
2023/06/09 12:20:28;;;;;;;8.50;4.28;;;27.20;99.90;;;;;;5097945;28;20043;-51
2023/06/09 12:23:12;;;;;;;9.85;3.92;;;27.30;99.90;;;;;;5098937;28;20266;-51
2023/06/09 12:25:40;;;;;;;12.23;4.03;;;27.40;99.90;;;;;;5098983;28;20104;-52
2023/06/09 12:28:31;;;;;;;12.40;3.92;;;27.20;99.90;;;;;;5098319;28;20067;-50
2023/06/09 12:31:11;;;;;;;7.03;3.83;;;27.20;99.90;;;;;;5068906;28;20512;-52
2023/06/09 12:33:38;;;;;;;11.07;4.47;;;27.40;99.90;;;;;;5099112;28;20361;-52
2023/06/09 12:36:09;;;;;;;8.13;4.35;;;27.10;99.90;;;;;;5097888;28;20519;-53
2023/06/09 12:38:40;;;;;;;8.80;4.60;;;27.30;99.90;;;;;;5098264;28;20053;-51
2023/06/09 12:41:10;;;;;;;10.77;3.95;;;27.50;99.90;;;;;;5091523;28;20155;-53